Terminal Aerodrome Forecast
Issued by NWS

Home | Current Version | Previous Version | Text Only | Print | Product List | Glossary On
Versions: 1 2 3 4 5 6 7 8 9 10 11 12 13 14 15 16 17 18 19 20 21 22 23 24 25
000
FTPA31 PHFO 211100
TAFITO
TAF
PHTO 211125Z 2112/2212 24005KT P6SM VCSH FEW030 SCT060
     FM212100 13008KT P6SM SCT030 BKN060
     FM220500 24005KT P6SM SCT025 BKN060=

USA.gov is the U.S. government's official web portal to all federal, state and local government web resources and services.